Portada
METAR-TAF:

METAR-TAF

Aeroports :

Zhengzhou, Xina

latitud: 34-43N, longitud: 113-39E, altitud: 111 m

Observació

L'informe es va fer fa 1 hora i 12 minuts, a les 17:00 UTC
Vent calma
Temperatura 9°C
Humitat 76%
Pressió 1023 hPa
Visibilitat: 8000 m

METAR: ZHCC 031700Z 00000MPS 8000 NSC 09/05 Q1023 NOSIG

Hora: 02:12 (18:12 UTC)

Pronòstic

L'informe es va fer fa 3 hores i 0 minuts, a les 15:12 UTC
Pronòstic vàlid del 03 a les 18 UTC al 04 a les 18 UTC
Vent 6 kt del Oest
Visibilitat: 4000 m
calitja
Temporalment
l' 03 a les 20 UTC al 04 a les 02 UTC
Visibilitat: 2000 m
boirina
Evolucionant progressivament
l' 04 a les 04 UTC al 04 a les 05 UTC
Vent 12 kt del Nord/Nord-Est

TAF: ZHCC 031512Z 0318/0418 27003MPS 4000 HZ NSC TX21/0407Z TN06/0322Z TEMPO 0320/0402 2000 BR BECMG 0404/0405 03006MPS

Observacions i pronòstics meteorològics de més de 4000 aeroports (METAR i TAF).

Les estacions disponibles són els punts grocs i vermells al mapa.

Posi el ratolí al punt desitjat per veure el nom de l'estació.

Feu clic per veure les observacions i els pronòstics meteorològics.

Per canviar el mapa: feu clic els botons verds amb una creu de color negre per apropar; al botó verd amb un guió per allunyar la imatge; o en les fletxes verdes per a mapes adjacents.


METAR-TAF: